Terminal Aerodrome Forecast
Issued by NWS

Home | Current Version | Previous Version | Text Only | Print | Product List | Glossary On
Versions: 1 2 3 4 5 6 7 8 9 10 11 12 13 14
000
FTUS41 KBTV 231100 AAA
TAFRUT
TAF AMD
KRUT 231143Z 2312/2412 32009KT P6SM VCSH OVC008
      TEMPO 2312/2316 SCT008 OVC015
     FM231600 32012G20KT P6SM VCSH OVC020
     FM240000 31006KT P6SM VCSH SCT020 OVC035
      AMD LTD TO CLD VIS AND WIND=

USA.gov is the U.S. government's official web portal to all federal, state and local government web resources and services.